sensor_id;sensor_type;location;lat;lon;timestamp;P1;durP1;ratioP1;P2;durP2;ratioP2
22826;SDS011;11580;52.562;13.418;2023-04-24T00:02:01;4.97;;;4.60;;
22826;SDS011;11580;52.562;13.418;2023-04-24T00:04:28;4.40;;;4.10;;
22826;SDS011;11580;52.562;13.418;2023-04-24T00:06:56;5.00;;;4.70;;
22826;SDS011;11580;52.562;13.418;2023-04-24T00:09:25;4.90;;;4.50;;
22826;SDS011;11580;52.562;13.418;2023-04-24T00:11:52;4.80;;;4.50;;
22826;SDS011;11580;52.562;13.418;2023-04-24T00:14:21;4.53;;;4.13;;
22826;SDS011;11580;52.562;13.418;2023-04-24T00:16:48;4.17;;;3.87;;
22826;SDS011;11580;52.562;13.418;2023-04-24T00:19:15;4.97;;;4.67;;
22826;SDS011;11580;52.562;13.418;2023-04-24T00:21:46;4.17;;;3.87;;
22826;SDS011;11580;52.562;13.418;2023-04-24T00:24:15;4.83;;;4.43;;
22826;SDS011;11580;52.562;13.418;2023-04-24T00:26:42;4.40;;;4.10;;
22826;SDS011;11580;52.562;13.418;2023-04-24T00:29:09;4.53;;;4.23;;
22826;SDS011;11580;52.562;13.418;2023-04-24T00:31:38;4.20;;;3.90;;
22826;SDS011;11580;52.562;13.418;2023-04-24T00:34:05;4.47;;;4.17;;
22826;SDS011;11580;52.562;13.418;2023-04-24T00:36:33;4.50;;;4.20;;
22826;SDS011;11580;52.562;13.418;2023-04-24T00:39:00;4.77;;;4.37;;
22826;SDS011;11580;52.562;13.418;2023-04-24T00:41:27;4.77;;;4.47;;
22826;SDS011;11580;52.562;13.418;2023-04-24T00:43:54;5.60;;;5.17;;
22826;SDS011;11580;52.562;13.418;2023-04-24T00:46:22;5.20;;;4.80;;
22826;SDS011;11580;52.562;13.418;2023-04-24T00:48:50;5.07;;;4.70;;
22826;SDS011;11580;52.562;13.418;2023-04-24T00:51:18;4.80;;;4.40;;
22826;SDS011;11580;52.562;13.418;2023-04-24T00:53:46;5.00;;;4.70;;
22826;SDS011;11580;52.562;13.418;2023-04-24T00:56:13;4.40;;;4.10;;
22826;SDS011;11580;52.562;13.418;2023-04-24T00:58:41;4.63;;;4.33;;
22826;SDS011;11580;52.562;13.418;2023-04-24T01:01:09;4.60;;;4.30;;
22826;SDS011;11580;52.562;13.418;2023-04-24T01:03:37;5.27;;;4.97;;
22826;SDS011;11580;52.562;13.418;2023-04-24T01:06:06;4.83;;;4.53;;
22826;SDS011;11580;52.562;13.418;2023-04-24T01:08:35;5.40;;;5.00;;
22826;SDS011;11580;52.562;13.418;2023-04-24T01:11:03;6.17;;;5.67;;
22826;SDS011;11580;52.562;13.418;2023-04-24T01:13:37;5.00;;;4.70;;
22826;SDS011;11580;52.562;13.418;2023-04-24T01:16:04;4.83;;;4.40;;
22826;SDS011;11580;52.562;13.418;2023-04-24T01:18:33;5.00;;;4.60;;
22826;SDS011;11580;52.562;13.418;2023-04-24T01:21:01;4.50;;;4.20;;
22826;SDS011;11580;52.562;13.418;2023-04-24T01:23:34;5.43;;;5.07;;
22826;SDS011;11580;52.562;13.418;2023-04-24T01:26:01;5.40;;;4.90;;
22826;SDS011;11580;52.562;13.418;2023-04-24T01:28:29;4.93;;;4.60;;
22826;SDS011;11580;52.562;13.418;2023-04-24T01:30:56;4.93;;;4.63;;
22826;SDS011;11580;52.562;13.418;2023-04-24T01:33:25;6.20;;;5.43;;
22826;SDS011;11580;52.562;13.418;2023-04-24T01:35:52;4.93;;;4.63;;
22826;SDS011;11580;52.562;13.418;2023-04-24T01:38:20;4.00;;;3.80;;
22826;SDS011;11580;52.562;13.418;2023-04-24T01:40:49;4.70;;;4.40;;
22826;SDS011;11580;52.562;13.418;2023-04-24T01:43:16;5.33;;;4.90;;
22826;SDS011;11580;52.562;13.418;2023-04-24T01:45:45;4.70;;;4.40;;
22826;SDS011;11580;52.562;13.418;2023-04-24T01:48:12;5.67;;;5.27;;
22826;SDS011;11580;52.562;13.418;2023-04-24T01:50:40;5.07;;;4.77;;
22826;SDS011;11580;52.562;13.418;2023-04-24T01:53:10;5.00;;;4.50;;
22826;SDS011;11580;52.562;13.418;2023-04-24T01:55:38;4.70;;;4.40;;
22826;SDS011;11580;52.562;13.418;2023-04-24T01:58:07;5.00;;;4.70;;
22826;SDS011;11580;52.562;13.418;2023-04-24T02:00:34;4.90;;;4.60;;
22826;SDS011;11580;52.562;13.418;2023-04-24T02:03:01;5.30;;;5.00;;
22826;SDS011;11580;52.562;13.418;2023-04-24T02:05:29;5.27;;;4.87;;
22826;SDS011;11580;52.562;13.418;2023-04-24T02:07:56;5.27;;;4.83;;
22826;SDS011;11580;52.562;13.418;2023-04-24T02:10:23;5.20;;;4.80;;
22826;SDS011;11580;52.562;13.418;2023-04-24T02:12:51;5.40;;;5.00;;
22826;SDS011;11580;52.562;13.418;2023-04-24T02:15:24;4.97;;;4.57;;
22826;SDS011;11580;52.562;13.418;2023-04-24T02:17:51;4.60;;;4.30;;
22826;SDS011;11580;52.562;13.418;2023-04-24T02:20:18;5.10;;;4.80;;
22826;SDS011;11580;52.562;13.418;2023-04-24T02:22:45;5.80;;;5.40;;
22826;SDS011;11580;52.562;13.418;2023-04-24T02:25:13;5.77;;;5.37;;
22826;SDS011;11580;52.562;13.418;2023-04-24T02:27:40;5.47;;;5.07;;
22826;SDS011;11580;52.562;13.418;2023-04-24T02:30:07;5.33;;;4.90;;
22826;SDS011;11580;52.562;13.418;2023-04-24T02:32:37;6.30;;;5.80;;
22826;SDS011;11580;52.562;13.418;2023-04-24T02:35:04;5.70;;;5.30;;
22826;SDS011;11580;52.562;13.418;2023-04-24T02:37:32;4.90;;;4.53;;
22826;SDS011;11580;52.562;13.418;2023-04-24T02:40:00;5.43;;;5.13;;
22826;SDS011;11580;52.562;13.418;2023-04-24T02:42:28;5.53;;;5.13;;
22826;SDS011;11580;52.562;13.418;2023-04-24T02:44:56;5.60;;;5.27;;
22826;SDS011;11580;52.562;13.418;2023-04-24T02:47:23;6.50;;;6.10;;
22826;SDS011;11580;52.562;13.418;2023-04-24T02:49:52;5.70;;;5.40;;
22826;SDS011;11580;52.562;13.418;2023-04-24T02:52:19;5.97;;;5.57;;
22826;SDS011;11580;52.562;13.418;2023-04-24T02:54:46;6.43;;;6.03;;
22826;SDS011;11580;52.562;13.418;2023-04-24T02:57:14;6.00;;;5.60;;
22826;SDS011;11580;52.562;13.418;2023-04-24T02:59:41;6.60;;;6.10;;
22826;SDS011;11580;52.562;13.418;2023-04-24T03:02:08;10.47;;;6.33;;
22826;SDS011;11580;52.562;13.418;2023-04-24T03:04:36;6.50;;;6.00;;
22826;SDS011;11580;52.562;13.418;2023-04-24T03:07:04;6.43;;;5.93;;
22826;SDS011;11580;52.562;13.418;2023-04-24T03:09:31;6.50;;;5.90;;
22826;SDS011;11580;52.562;13.418;2023-04-24T03:11:59;6.50;;;6.10;;
22826;SDS011;11580;52.562;13.418;2023-04-24T03:14:26;5.90;;;5.50;;
22826;SDS011;11580;52.562;13.418;2023-04-24T03:16:56;5.90;;;5.43;;
22826;SDS011;11580;52.562;13.418;2023-04-24T03:19:23;7.37;;;6.87;;
22826;SDS011;11580;52.562;13.418;2023-04-24T03:22:01;6.00;;;5.60;;
22826;SDS011;11580;52.562;13.418;2023-04-24T03:24:31;5.77;;;5.37;;
22826;SDS011;11580;52.562;13.418;2023-04-24T03:26:58;6.43;;;5.93;;
22826;SDS011;11580;52.562;13.418;2023-04-24T03:29:44;6.13;;;5.73;;
22826;SDS011;11580;52.562;13.418;2023-04-24T03:32:12;6.60;;;6.10;;
22826;SDS011;11580;52.562;13.418;2023-04-24T03:34:39;5.53;;;5.13;;
22826;SDS011;11580;52.562;13.418;2023-04-24T03:37:10;6.07;;;5.67;;
22826;SDS011;11580;52.562;13.418;2023-04-24T03:39:44;6.57;;;6.07;;
22826;SDS011;11580;52.562;13.418;2023-04-24T03:42:13;6.87;;;6.37;;
22826;SDS011;11580;52.562;13.418;2023-04-24T03:44:49;5.50;;;5.20;;
22826;SDS011;11580;52.562;13.418;2023-04-24T03:47:17;6.37;;;5.93;;
22826;SDS011;11580;52.562;13.418;2023-04-24T03:49:46;6.27;;;5.87;;
22826;SDS011;11580;52.562;13.418;2023-04-24T03:52:14;6.43;;;6.03;;
22826;SDS011;11580;52.562;13.418;2023-04-24T03:54:41;6.73;;;6.23;;
22826;SDS011;11580;52.562;13.418;2023-04-24T03:57:10;6.43;;;6.00;;
22826;SDS011;11580;52.562;13.418;2023-04-24T03:59:46;5.90;;;5.50;;
22826;SDS011;11580;52.562;13.418;2023-04-24T04:02:17;6.83;;;6.33;;
22826;SDS011;11580;52.562;13.418;2023-04-24T04:04:44;6.10;;;5.70;;
22826;SDS011;11580;52.562;13.418;2023-04-24T04:07:11;6.40;;;6.00;;
22826;SDS011;11580;52.562;13.418;2023-04-24T04:09:39;6.27;;;5.87;;
22826;SDS011;11580;52.562;13.418;2023-04-24T04:12:07;6.40;;;6.00;;
22826;SDS011;11580;52.562;13.418;2023-04-24T04:14:36;6.53;;;6.00;;
22826;SDS011;11580;52.562;13.418;2023-04-24T04:17:03;8.63;;;5.80;;
22826;SDS011;11580;52.562;13.418;2023-04-24T04:19:30;6.50;;;6.00;;
22826;SDS011;11580;52.562;13.418;2023-04-24T04:21:58;5.90;;;5.50;;
22826;SDS011;11580;52.562;13.418;2023-04-24T04:24:34;6.83;;;6.10;;
22826;SDS011;11580;52.562;13.418;2023-04-24T04:27:04;5.80;;;5.40;;
22826;SDS011;11580;52.562;13.418;2023-04-24T04:29:38;6.40;;;5.90;;
22826;SDS011;11580;52.562;13.418;2023-04-24T04:32:09;5.53;;;5.13;;
22826;SDS011;11580;52.562;13.418;2023-04-24T04:34:36;7.23;;;5.20;;
22826;SDS011;11580;52.562;13.418;2023-04-24T04:37:06;5.93;;;5.53;;
22826;SDS011;11580;52.562;13.418;2023-04-24T04:39:49;5.77;;;5.30;;
22826;SDS011;11580;52.562;13.418;2023-04-24T04:42:22;6.13;;;5.63;;
22826;SDS011;11580;52.562;13.418;2023-04-24T04:44:51;5.50;;;5.20;;
22826;SDS011;11580;52.562;13.418;2023-04-24T04:47:23;6.10;;;5.50;;
22826;SDS011;11580;52.562;13.418;2023-04-24T04:49:53;6.23;;;5.77;;
22826;SDS011;11580;52.562;13.418;2023-04-24T04:52:24;5.73;;;5.33;;
22826;SDS011;11580;52.562;13.418;2023-04-24T04:55:04;6.13;;;5.73;;
22826;SDS011;11580;52.562;13.418;2023-04-24T04:57:55;5.40;;;5.00;;
22826;SDS011;11580;52.562;13.418;2023-04-24T05:00:24;6.10;;;5.60;;
22826;SDS011;11580;52.562;13.418;2023-04-24T05:02:52;5.83;;;5.33;;
22826;SDS011;11580;52.562;13.418;2023-04-24T05:05:20;5.20;;;4.90;;
22826;SDS011;11580;52.562;13.418;2023-04-24T05:07:48;5.93;;;5.50;;
22826;SDS011;11580;52.562;13.418;2023-04-24T05:10:15;5.40;;;4.90;;
22826;SDS011;11580;52.562;13.418;2023-04-24T05:12:42;5.23;;;4.83;;
22826;SDS011;11580;52.562;13.418;2023-04-24T05:15:10;5.13;;;4.83;;
22826;SDS011;11580;52.562;13.418;2023-04-24T05:17:39;5.50;;;5.10;;
22826;SDS011;11580;52.562;13.418;2023-04-24T05:20:08;5.03;;;4.73;;
22826;SDS011;11580;52.562;13.418;2023-04-24T05:22:35;5.17;;;4.77;;
22826;SDS011;11580;52.562;13.418;2023-04-24T05:25:02;4.17;;;3.87;;
22826;SDS011;11580;52.562;13.418;2023-04-24T05:27:53;4.77;;;4.37;;
22826;SDS011;11580;52.562;13.418;2023-04-24T05:30:22;4.80;;;4.37;;
22826;SDS011;11580;52.562;13.418;2023-04-24T05:32:50;4.30;;;4.00;;
22826;SDS011;11580;52.562;13.418;2023-04-24T05:35:18;4.30;;;4.00;;
22826;SDS011;11580;52.562;13.418;2023-04-24T05:37:45;4.70;;;4.20;;
22826;SDS011;11580;52.562;13.418;2023-04-24T05:40:13;4.73;;;4.33;;
22826;SDS011;11580;52.562;13.418;2023-04-24T05:42:41;4.13;;;3.83;;
22826;SDS011;11580;52.562;13.418;2023-04-24T05:45:08;3.83;;;3.53;;
22826;SDS011;11580;52.562;13.418;2023-04-24T05:47:41;4.00;;;3.70;;
22826;SDS011;11580;52.562;13.418;2023-04-24T05:50:11;3.30;;;3.10;;
22826;SDS011;11580;52.562;13.418;2023-04-24T05:52:38;3.50;;;3.20;;
22826;SDS011;11580;52.562;13.418;2023-04-24T05:55:18;3.20;;;3.00;;
22826;SDS011;11580;52.562;13.418;2023-04-24T05:57:46;5.13;;;3.30;;
22826;SDS011;11580;52.562;13.418;2023-04-24T06:00:13;3.17;;;2.97;;
22826;SDS011;11580;52.562;13.418;2023-04-24T06:02:50;14.57;;;13.13;;
22826;SDS011;11580;52.562;13.418;2023-04-24T06:05:19;4.97;;;4.40;;
22826;SDS011;11580;52.562;13.418;2023-04-24T06:07:46;3.53;;;3.27;;
22826;SDS011;11580;52.562;13.418;2023-04-24T06:10:14;3.53;;;3.23;;
22826;SDS011;11580;52.562;13.418;2023-04-24T06:12:43;2.87;;;2.67;;
22826;SDS011;11580;52.562;13.418;2023-04-24T06:15:15;2.60;;;2.40;;
22826;SDS011;11580;52.562;13.418;2023-04-24T06:18:08;2.93;;;2.73;;
22826;SDS011;11580;52.562;13.418;2023-04-24T06:20:38;3.17;;;2.80;;
22826;SDS011;11580;52.562;13.418;2023-04-24T06:23:08;2.80;;;2.60;;
22826;SDS011;11580;52.562;13.418;2023-04-24T06:25:35;2.80;;;2.50;;
22826;SDS011;11580;52.562;13.418;2023-04-24T06:28:03;2.33;;;2.23;;
22826;SDS011;11580;52.562;13.418;2023-04-24T06:30:30;3.00;;;2.80;;
22826;SDS011;11580;52.562;13.418;2023-04-24T06:32:57;6.03;;;3.07;;
22826;SDS011;11580;52.562;13.418;2023-04-24T06:35:24;3.00;;;2.60;;
22826;SDS011;11580;52.562;13.418;2023-04-24T06:37:53;8.07;;;4.17;;
22826;SDS011;11580;52.562;13.418;2023-04-24T06:40:21;2.87;;;2.67;;
22826;SDS011;11580;52.562;13.418;2023-04-24T06:42:48;9.30;;;3.43;;
22826;SDS011;11580;52.562;13.418;2023-04-24T06:45:15;2.50;;;2.40;;
22826;SDS011;11580;52.562;13.418;2023-04-24T06:47:43;19.13;;;5.50;;
22826;SDS011;11580;52.562;13.418;2023-04-24T06:50:10;13.83;;;3.93;;
22826;SDS011;11580;52.562;13.418;2023-04-24T06:52:37;7.33;;;3.03;;
22826;SDS011;11580;52.562;13.418;2023-04-24T06:55:07;2.30;;;2.03;;
22826;SDS011;11580;52.562;13.418;2023-04-24T06:57:36;4.23;;;2.30;;
22826;SDS011;11580;52.562;13.418;2023-04-24T07:00:03;1.80;;;1.70;;
22826;SDS011;11580;52.562;13.418;2023-04-24T07:02:34;4.03;;;3.73;;
22826;SDS011;11580;52.562;13.418;2023-04-24T07:05:02;8.30;;;7.50;;
22826;SDS011;11580;52.562;13.418;2023-04-24T07:07:30;3.20;;;2.80;;
22826;SDS011;11580;52.562;13.418;2023-04-24T07:09:57;7.50;;;6.80;;
22826;SDS011;11580;52.562;13.418;2023-04-24T07:12:26;3.43;;;3.23;;
22826;SDS011;11580;52.562;13.418;2023-04-24T07:14:53;2.70;;;2.50;;
22826;SDS011;11580;52.562;13.418;2023-04-24T07:17:20;2.13;;;1.80;;
22826;SDS011;11580;52.562;13.418;2023-04-24T07:19:47;1.63;;;1.30;;
22826;SDS011;11580;52.562;13.418;2023-04-24T07:22:15;1.67;;;1.57;;
22826;SDS011;11580;52.562;13.418;2023-04-24T07:24:42;1.87;;;1.73;;
22826;SDS011;11580;52.562;13.418;2023-04-24T07:27:10;1.77;;;1.67;;
22826;SDS011;11580;52.562;13.418;2023-04-24T07:29:41;12.23;;;2.47;;
22826;SDS011;11580;52.562;13.418;2023-04-24T07:32:08;1.30;;;1.20;;
22826;SDS011;11580;52.562;13.418;2023-04-24T07:34:36;1.50;;;1.40;;
22826;SDS011;11580;52.562;13.418;2023-04-24T07:37:03;4.07;;;1.70;;
22826;SDS011;11580;52.562;13.418;2023-04-24T07:39:30;3.63;;;1.70;;
22826;SDS011;11580;52.562;13.418;2023-04-24T07:41:58;2.30;;;1.43;;
22826;SDS011;11580;52.562;13.418;2023-04-24T07:44:26;1.40;;;1.30;;
22826;SDS011;11580;52.562;13.418;2023-04-24T07:46:55;1.50;;;1.20;;
22826;SDS011;11580;52.562;13.418;2023-04-24T07:49:22;3.27;;;1.40;;
22826;SDS011;11580;52.562;13.418;2023-04-24T07:51:50;1.83;;;1.40;;
22826;SDS011;11580;52.562;13.418;2023-04-24T07:54:19;1.00;;;0.90;;
22826;SDS011;11580;52.562;13.418;2023-04-24T07:56:46;1.47;;;1.37;;
22826;SDS011;11580;52.562;13.418;2023-04-24T07:59:14;1.20;;;1.10;;
22826;SDS011;11580;52.562;13.418;2023-04-24T08:01:41;1.23;;;0.97;;
22826;SDS011;11580;52.562;13.418;2023-04-24T08:04:09;1.00;;;1.00;;
22826;SDS011;11580;52.562;13.418;2023-04-24T08:06:36;0.70;;;0.70;;
22826;SDS011;11580;52.562;13.418;2023-04-24T08:09:04;2.50;;;0.80;;
22826;SDS011;11580;52.562;13.418;2023-04-24T08:11:31;1.40;;;1.30;;
22826;SDS011;11580;52.562;13.418;2023-04-24T08:13:58;4.60;;;1.10;;
22826;SDS011;11580;52.562;13.418;2023-04-24T08:16:25;1.07;;;1.00;;
22826;SDS011;11580;52.562;13.418;2023-04-24T08:18:53;1.10;;;1.10;;
22826;SDS011;11580;52.562;13.418;2023-04-24T08:21:22;0.80;;;0.80;;
22826;SDS011;11580;52.562;13.418;2023-04-24T08:23:51;1.67;;;1.10;;
22826;SDS011;11580;52.562;13.418;2023-04-24T08:26:18;1.30;;;0.90;;
22826;SDS011;11580;52.562;13.418;2023-04-24T08:28:45;2.23;;;1.37;;
22826;SDS011;11580;52.562;13.418;2023-04-24T08:31:12;3.47;;;3.17;;
22826;SDS011;11580;52.562;13.418;2023-04-24T08:33:40;1.80;;;1.70;;
22826;SDS011;11580;52.562;13.418;2023-04-24T08:36:10;1.20;;;1.10;;
22826;SDS011;11580;52.562;13.418;2023-04-24T08:38:38;1.00;;;1.00;;
22826;SDS011;11580;52.562;13.418;2023-04-24T08:41:06;1.53;;;1.30;;
22826;SDS011;11580;52.562;13.418;2023-04-24T08:43:34;2.57;;;2.00;;
22826;SDS011;11580;52.562;13.418;2023-04-24T08:46:03;1.27;;;1.17;;
22826;SDS011;11580;52.562;13.418;2023-04-24T08:48:31;1.73;;;1.30;;
22826;SDS011;11580;52.562;13.418;2023-04-24T08:50:58;1.50;;;1.20;;
22826;SDS011;11580;52.562;13.418;2023-04-24T08:53:26;1.40;;;1.00;;
22826;SDS011;11580;52.562;13.418;2023-04-24T08:55:55;0.97;;;0.90;;
22826;SDS011;11580;52.562;13.418;2023-04-24T08:58:22;0.90;;;0.90;;
22826;SDS011;11580;52.562;13.418;2023-04-24T09:00:53;0.80;;;0.80;;
22826;SDS011;11580;52.562;13.418;2023-04-24T09:03:21;1.03;;;0.93;;
22826;SDS011;11580;52.562;13.418;2023-04-24T09:05:49;0.87;;;0.87;;
22826;SDS011;11580;52.562;13.418;2023-04-24T09:08:19;0.70;;;0.70;;
22826;SDS011;11580;52.562;13.418;2023-04-24T09:10:51;0.67;;;0.67;;
22826;SDS011;11580;52.562;13.418;2023-04-24T09:13:20;0.80;;;0.80;;
22826;SDS011;11580;52.562;13.418;2023-04-24T09:15:47;1.90;;;1.80;;
22826;SDS011;11580;52.562;13.418;2023-04-24T09:18:15;0.80;;;0.80;;
22826;SDS011;11580;52.562;13.418;2023-04-24T09:20:59;1.43;;;1.33;;
22826;SDS011;11580;52.562;13.418;2023-04-24T09:23:29;1.10;;;1.03;;
22826;SDS011;11580;52.562;13.418;2023-04-24T09:25:58;2.00;;;1.53;;
22826;SDS011;11580;52.562;13.418;2023-04-24T09:28:31;3.63;;;1.10;;
22826;SDS011;11580;52.562;13.418;2023-04-24T09:31:02;4.07;;;3.77;;
22826;SDS011;11580;52.562;13.418;2023-04-24T09:33:32;2.10;;;1.20;;
22826;SDS011;11580;52.562;13.418;2023-04-24T09:35:59;1.33;;;1.20;;
22826;SDS011;11580;52.562;13.418;2023-04-24T09:38:30;2.90;;;1.70;;
22826;SDS011;11580;52.562;13.418;2023-04-24T09:41:00;1.17;;;1.03;;
22826;SDS011;11580;52.562;13.418;2023-04-24T09:43:30;1.63;;;1.40;;
22826;SDS011;11580;52.562;13.418;2023-04-24T09:45:58;2.40;;;1.30;;
22826;SDS011;11580;52.562;13.418;2023-04-24T09:48:31;0.97;;;0.97;;
22826;SDS011;11580;52.562;13.418;2023-04-24T09:51:00;3.33;;;2.87;;
22826;SDS011;11580;52.562;13.418;2023-04-24T09:53:28;8.20;;;7.30;;
22826;SDS011;11580;52.562;13.418;2023-04-24T09:56:02;2.80;;;2.60;;
22826;SDS011;11580;52.562;13.418;2023-04-24T09:58:35;4.37;;;2.00;;
22826;SDS011;11580;52.562;13.418;2023-04-24T10:01:02;4.27;;;3.97;;
22826;SDS011;11580;52.562;13.418;2023-04-24T10:03:30;2.60;;;2.40;;
22826;SDS011;11580;52.562;13.418;2023-04-24T10:05:59;1.80;;;1.70;;
22826;SDS011;11580;52.562;13.418;2023-04-24T10:08:27;1.67;;;1.33;;
22826;SDS011;11580;52.562;13.418;2023-04-24T10:11:00;1.30;;;1.20;;
22826;SDS011;11580;52.562;13.418;2023-04-24T10:13:28;5.70;;;5.20;;
22826;SDS011;11580;52.562;13.418;2023-04-24T10:15:57;27.60;;;25.20;;
22826;SDS011;11580;52.562;13.418;2023-04-24T10:18:27;8.43;;;7.80;;
22826;SDS011;11580;52.562;13.418;2023-04-24T10:20:55;3.97;;;3.67;;
22826;SDS011;11580;52.562;13.418;2023-04-24T10:23:23;10.07;;;4.73;;
22826;SDS011;11580;52.562;13.418;2023-04-24T10:25:52;3.00;;;2.23;;
22826;SDS011;11580;52.562;13.418;2023-04-24T10:28:20;3.70;;;1.60;;
22826;SDS011;11580;52.562;13.418;2023-04-24T10:30:50;5.47;;;1.70;;
22826;SDS011;11580;52.562;13.418;2023-04-24T10:33:22;2.40;;;1.13;;
22826;SDS011;11580;52.562;13.418;2023-04-24T10:35:50;3.13;;;1.40;;
22826;SDS011;11580;52.562;13.418;2023-04-24T10:38:22;2.50;;;1.03;;
22826;SDS011;11580;52.562;13.418;2023-04-24T10:40:54;1.57;;;1.10;;
22826;SDS011;11580;52.562;13.418;2023-04-24T10:43:33;0.90;;;0.90;;
22826;SDS011;11580;52.562;13.418;2023-04-24T10:46:02;2.23;;;1.00;;
22826;SDS011;11580;52.562;13.418;2023-04-24T10:48:34;1.93;;;1.10;;
22826;SDS011;11580;52.562;13.418;2023-04-24T10:51:10;3.43;;;1.00;;
22826;SDS011;11580;52.562;13.418;2023-04-24T10:53:39;1.33;;;1.07;;
22826;SDS011;11580;52.562;13.418;2023-04-24T10:56:07;4.27;;;3.90;;
22826;SDS011;11580;52.562;13.418;2023-04-24T10:58:36;0.90;;;0.90;;
22826;SDS011;11580;52.562;13.418;2023-04-24T11:01:06;1.00;;;0.90;;
22826;SDS011;11580;52.562;13.418;2023-04-24T11:03:34;1.97;;;1.13;;
22826;SDS011;11580;52.562;13.418;2023-04-24T11:06:03;1.30;;;1.20;;
22826;SDS011;11580;52.562;13.418;2023-04-24T11:08:36;1.63;;;0.83;;
22826;SDS011;11580;52.562;13.418;2023-04-24T11:11:08;2.50;;;1.20;;
22826;SDS011;11580;52.562;13.418;2023-04-24T11:16:33;5.47;;;1.30;;
22826;SDS011;11580;52.562;13.418;2023-04-24T11:19:07;3.30;;;1.93;;
22826;SDS011;11580;52.562;13.418;2023-04-24T11:21:40;5.27;;;2.07;;
22826;SDS011;11580;52.562;13.418;2023-04-24T11:24:26;3.07;;;1.50;;
22826;SDS011;11580;52.562;13.418;2023-04-24T11:26:57;1.10;;;1.00;;
22826;SDS011;11580;52.562;13.418;2023-04-24T11:29:44;1.10;;;0.83;;
22826;SDS011;11580;52.562;13.418;2023-04-24T11:32:23;1.00;;;0.80;;
22826;SDS011;11580;52.562;13.418;2023-04-24T11:34:55;1.03;;;1.00;;
22826;SDS011;11580;52.562;13.418;2023-04-24T11:37:25;0.93;;;0.93;;
22826;SDS011;11580;52.562;13.418;2023-04-24T11:39:55;1.10;;;1.00;;
22826;SDS011;11580;52.562;13.418;2023-04-24T11:42:24;2.90;;;1.30;;
22826;SDS011;11580;52.562;13.418;2023-04-24T11:44:52;2.50;;;1.60;;
22826;SDS011;11580;52.562;13.418;2023-04-24T11:47:27;2.47;;;1.10;;
22826;SDS011;11580;52.562;13.418;2023-04-24T11:49:57;1.40;;;1.30;;
22826;SDS011;11580;52.562;13.418;2023-04-24T11:52:25;2.33;;;1.10;;
22826;SDS011;11580;52.562;13.418;2023-04-24T11:54:52;1.87;;;1.03;;
22826;SDS011;11580;52.562;13.418;2023-04-24T11:57:20;1.20;;;1.10;;
22826;SDS011;11580;52.562;13.418;2023-04-24T11:59:48;1.63;;;0.93;;
22826;SDS011;11580;52.562;13.418;2023-04-24T12:02:22;1.93;;;0.97;;
22826;SDS011;11580;52.562;13.418;2023-04-24T12:04:51;1.27;;;1.17;;
22826;SDS011;11580;52.562;13.418;2023-04-24T12:07:21;1.30;;;1.20;;
22826;SDS011;11580;52.562;13.418;2023-04-24T12:09:54;1.23;;;1.07;;
22826;SDS011;11580;52.562;13.418;2023-04-24T12:12:24;1.90;;;1.20;;
22826;SDS011;11580;52.562;13.418;2023-04-24T12:14:53;1.20;;;1.10;;
22826;SDS011;11580;52.562;13.418;2023-04-24T12:17:26;1.87;;;1.37;;
22826;SDS011;11580;52.562;13.418;2023-04-24T12:19:59;1.30;;;1.20;;
22826;SDS011;11580;52.562;13.418;2023-04-24T12:22:35;1.30;;;0.97;;
22826;SDS011;11580;52.562;13.418;2023-04-24T12:25:11;1.20;;;1.07;;
22826;SDS011;11580;52.562;13.418;2023-04-24T12:27:39;2.23;;;1.30;;
22826;SDS011;11580;52.562;13.418;2023-04-24T12:30:09;1.93;;;1.70;;
22826;SDS011;11580;52.562;13.418;2023-04-24T12:32:43;1.47;;;1.37;;
22826;SDS011;11580;52.562;13.418;2023-04-24T12:35:12;1.20;;;1.10;;
22826;SDS011;11580;52.562;13.418;2023-04-24T12:37:42;1.50;;;1.30;;
22826;SDS011;11580;52.562;13.418;2023-04-24T12:40:10;1.70;;;1.30;;
22826;SDS011;11580;52.562;13.418;2023-04-24T12:42:42;2.43;;;1.20;;
22826;SDS011;11580;52.562;13.418;2023-04-24T12:45:10;1.97;;;1.87;;
22826;SDS011;11580;52.562;13.418;2023-04-24T12:47:39;1.23;;;1.20;;
22826;SDS011;11580;52.562;13.418;2023-04-24T12:50:09;1.10;;;1.00;;
22826;SDS011;11580;52.562;13.418;2023-04-24T12:52:38;0.80;;;0.80;;
22826;SDS011;11580;52.562;13.418;2023-04-24T12:55:08;1.20;;;1.10;;
22826;SDS011;11580;52.562;13.418;2023-04-24T12:57:37;1.03;;;1.03;;
22826;SDS011;11580;52.562;13.418;2023-04-24T13:00:06;1.20;;;1.00;;
22826;SDS011;11580;52.562;13.418;2023-04-24T13:02:35;0.90;;;0.90;;
22826;SDS011;11580;52.562;13.418;2023-04-24T13:05:02;1.10;;;1.00;;
22826;SDS011;11580;52.562;13.418;2023-04-24T13:07:30;2.10;;;1.33;;
22826;SDS011;11580;52.562;13.418;2023-04-24T13:09:57;1.40;;;1.30;;
22826;SDS011;11580;52.562;13.418;2023-04-24T13:12:26;2.10;;;1.07;;
22826;SDS011;11580;52.562;13.418;2023-04-24T13:14:53;1.00;;;1.00;;
22826;SDS011;11580;52.562;13.418;2023-04-24T13:17:21;1.63;;;0.93;;
22826;SDS011;11580;52.562;13.418;2023-04-24T13:19:49;1.00;;;1.00;;
22826;SDS011;11580;52.562;13.418;2023-04-24T13:22:17;3.33;;;0.90;;
22826;SDS011;11580;52.562;13.418;2023-04-24T13:24:44;1.67;;;1.13;;
22826;SDS011;11580;52.562;13.418;2023-04-24T13:27:14;2.47;;;1.10;;
22826;SDS011;11580;52.562;13.418;2023-04-24T13:29:43;1.80;;;1.30;;
22826;SDS011;11580;52.562;13.418;2023-04-24T13:32:11;1.77;;;1.43;;
22826;SDS011;11580;52.562;13.418;2023-04-24T13:34:39;1.43;;;1.23;;
22826;SDS011;11580;52.562;13.418;2023-04-24T13:37:06;1.17;;;1.07;;
22826;SDS011;11580;52.562;13.418;2023-04-24T13:39:34;1.87;;;1.60;;
22826;SDS011;11580;52.562;13.418;2023-04-24T13:42:01;1.53;;;1.30;;
22826;SDS011;11580;52.562;13.418;2023-04-24T13:44:29;1.20;;;1.10;;
22826;SDS011;11580;52.562;13.418;2023-04-24T13:46:57;1.63;;;1.30;;
22826;SDS011;11580;52.562;13.418;2023-04-24T13:49:25;1.80;;;1.23;;
22826;SDS011;11580;52.562;13.418;2023-04-24T13:51:53;1.37;;;1.10;;
22826;SDS011;11580;52.562;13.418;2023-04-24T13:54:22;1.43;;;1.33;;
22826;SDS011;11580;52.562;13.418;2023-04-24T13:56:50;1.47;;;1.20;;
22826;SDS011;11580;52.562;13.418;2023-04-24T13:59:18;1.33;;;1.20;;
22826;SDS011;11580;52.562;13.418;2023-04-24T14:01:46;1.47;;;1.20;;
22826;SDS011;11580;52.562;13.418;2023-04-24T14:04:15;1.10;;;1.10;;
22826;SDS011;11580;52.562;13.418;2023-04-24T14:06:42;1.57;;;1.10;;
22826;SDS011;11580;52.562;13.418;2023-04-24T14:09:10;3.00;;;1.23;;
22826;SDS011;11580;52.562;13.418;2023-04-24T14:11:37;1.20;;;0.90;;
22826;SDS011;11580;52.562;13.418;2023-04-24T14:14:05;1.37;;;1.27;;
22826;SDS011;11580;52.562;13.418;2023-04-24T14:16:32;1.47;;;1.10;;
22826;SDS011;11580;52.562;13.418;2023-04-24T14:19:00;1.17;;;1.13;;
22826;SDS011;11580;52.562;13.418;2023-04-24T14:21:29;1.23;;;1.13;;
22826;SDS011;11580;52.562;13.418;2023-04-24T14:23:56;1.20;;;1.10;;
22826;SDS011;11580;52.562;13.418;2023-04-24T14:26:23;1.50;;;1.20;;
22826;SDS011;11580;52.562;13.418;2023-04-24T14:28:50;1.43;;;1.33;;
22826;SDS011;11580;52.562;13.418;2023-04-24T14:31:20;1.33;;;1.00;;
22826;SDS011;11580;52.562;13.418;2023-04-24T14:33:47;2.13;;;1.10;;
22826;SDS011;11580;52.562;13.418;2023-04-24T14:36:14;1.30;;;1.20;;
22826;SDS011;11580;52.562;13.418;2023-04-24T14:38:43;1.20;;;1.10;;
22826;SDS011;11580;52.562;13.418;2023-04-24T14:41:10;1.10;;;1.10;;
22826;SDS011;11580;52.562;13.418;2023-04-24T14:43:37;1.27;;;1.00;;
22826;SDS011;11580;52.562;13.418;2023-04-24T14:46:05;1.13;;;1.13;;
22826;SDS011;11580;52.562;13.418;2023-04-24T14:48:32;1.03;;;1.03;;